Time;durP1;ratioP1;P1;durP2;ratioP2;P2;SDS_P1;SDS_P2;PMS_P1;PMS_P2;Temp;Humidity;BMP_temperature;BMP_pressure;BME280_temperature;BME280_humidity;BME280_pressure;Samples;Min_cycle;Max_cycle;Signal;HPM_P1;HPM_P2
2023/08/20 00:01:16;;;;;;;10.00;9.03;;;;;;;23.90;99.79;98511.78;4166853;28;20690;-77
2023/08/20 00:03:19;;;;;;;11.27;10.07;;;;;;;23.89;100.00;98505.63;4168722;28;20767;-76
2023/08/20 00:05:23;;;;;;;11.13;9.87;;;;;;;23.91;100.00;98508.13;4151307;28;20746;-76
2023/08/20 00:07:27;;;;;;;10.50;9.23;;;;;;;23.90;100.00;98506.44;4158166;28;20725;-75
2023/08/20 00:09:30;;;;;;;11.73;10.53;;;;;;;23.88;100.00;98498.63;4168708;28;20739;-76
2023/08/20 00:11:33;;;;;;;12.10;9.80;;;;;;;23.87;100.00;98496.13;4169875;28;20635;-76
2023/08/20 00:13:36;;;;;;;11.67;9.27;;;;;;;23.86;100.00;98498.00;4175440;28;20640;-76
2023/08/20 00:15:41;;;;;;;10.80;9.70;;;;;;;23.86;100.00;98505.13;4166885;28;21283;-76
2023/08/20 00:17:45;;;;;;;14.30;9.67;;;;;;;23.84;100.00;98501.81;4169553;28;20657;-76
2023/08/20 00:19:49;;;;;;;10.23;9.23;;;;;;;23.84;100.00;98512.50;4169272;28;20636;-77
2023/08/20 00:21:53;;;;;;;11.30;9.93;;;;;;;23.84;100.00;98517.81;4155431;28;20656;-77
2023/08/20 00:23:57;;;;;;;11.07;9.53;;;;;;;23.86;100.00;98521.13;4145282;28;21039;-76
2023/08/20 00:26:03;;;;;;;11.60;10.40;;;;;;;23.85;100.00;98530.16;4167690;28;20636;-76
2023/08/20 00:28:06;;;;;;;12.90;9.90;;;;;;;23.83;100.00;98525.00;4165025;28;20625;-76
2023/08/20 00:30:11;;;;;;;9.77;8.77;;;;;;;23.81;100.00;98523.50;4171393;28;20686;-76
2023/08/20 00:32:16;;;;;;;10.17;9.10;;;;;;;23.79;100.00;98525.53;4168879;28;20738;-77
2023/08/20 00:34:19;;;;;;;11.30;9.77;;;;;;;23.73;100.00;98521.72;4169149;28;20644;-77
2023/08/20 00:36:23;;;;;;;10.10;8.60;;;;;;;23.71;100.00;98529.06;4170116;28;20636;-76
2023/08/20 00:38:26;;;;;;;12.23;10.50;;;;;;;23.68;100.00;98528.59;4175309;28;20627;-76
2023/08/20 00:40:31;;;;;;;9.30;8.40;;;;;;;23.67;100.00;98532.25;4182578;28;20647;-77
2023/08/20 00:42:33;;;;;;;10.73;8.90;;;;;;;23.66;100.00;98522.59;4171881;28;20649;-76
2023/08/20 00:44:36;;;;;;;15.70;9.33;;;;;;;23.65;100.00;98528.09;4152374;28;20640;-76
2023/08/20 00:46:41;;;;;;;10.77;9.67;;;;;;;23.62;100.00;98531.06;4156108;28;21194;-77
2023/08/20 00:48:46;;;;;;;11.13;8.87;;;;;;;23.62;100.00;98539.06;4157756;28;20740;-76
2023/08/20 00:50:49;;;;;;;9.90;8.90;;;;;;;23.61;100.00;98538.25;4162373;28;21063;-77
2023/08/20 00:52:53;;;;;;;11.50;9.73;;;;;;;23.60;100.00;98541.09;4170790;28;20640;-76
2023/08/20 00:54:56;;;;;;;10.33;9.33;;;;;;;23.60;100.00;98541.09;4163539;28;20740;-77
2023/08/20 00:57:03;;;;;;;11.43;9.53;;;;;;;23.60;100.00;98547.22;4165691;28;20645;-76
2023/08/20 00:59:07;;;;;;;10.90;9.90;;;;;;;23.59;100.00;98545.59;4164025;28;21298;-77
2023/08/20 01:01:10;;;;;;;10.80;8.80;;;;;;;23.57;100.00;98544.91;4155888;28;20647;-77
2023/08/20 01:03:13;;;;;;;12.33;10.00;;;;;;;23.54;100.00;98537.28;4151454;28;20678;-76
2023/08/20 01:05:18;;;;;;;10.80;9.67;;;;;;;23.53;100.00;98535.63;4168082;28;20660;-76
2023/08/20 01:07:25;;;;;;;10.97;9.77;;;;;;;23.52;100.00;98539.28;4166992;28;20640;-77
2023/08/20 01:09:35;;;;;;;11.27;10.13;;;;;;;23.48;100.00;98535.31;4157249;28;20709;-78
2023/08/20 01:11:47;;;;;;;11.00;9.80;;;;;;;23.46;100.00;98533.84;4167541;28;21242;-76
2023/08/20 01:13:51;;;;;;;12.30;10.47;;;;;;;23.41;100.00;98542.34;4153431;28;20734;-77
2023/08/20 01:15:54;;;;;;;14.50;10.80;;;;;;;23.39;100.00;98544.31;4167481;28;20956;-76
2023/08/20 01:17:57;;;;;;;12.17;10.97;;;;;;;23.38;100.00;98541.88;4166708;28;21206;-77
2023/08/20 01:20:00;;;;;;;12.73;10.20;;;;;;;23.37;100.00;98540.19;4168272;28;20735;-77
2023/08/20 01:22:28;;;;;;;12.60;9.80;;;;;;;23.35;100.00;98537.72;4166682;28;20653;-76
2023/08/20 01:24:41;;;;;;;11.23;10.13;;;;;;;23.34;100.00;98545.88;4166586;28;20632;-77
2023/08/20 01:26:55;;;;;;;10.53;9.53;;;;;;;23.33;100.00;98541.53;4167882;28;21108;-78
2023/08/20 01:28:59;;;;;;;11.03;10.03;;;;;;;23.34;100.00;98543.22;4165245;28;20698;-81
2023/08/20 01:31:03;;;;;;;11.70;10.50;;;;;;;23.33;100.00;98555.69;4161336;28;21022;-81
2023/08/20 01:33:07;;;;;;;11.80;10.37;;;;;;;23.35;100.00;98543.03;4165936;28;20993;-83
2023/08/20 01:35:13;;;;;;;11.50;10.30;;;;;;;23.38;100.00;98553.34;4164004;28;20640;-84
2023/08/20 01:37:17;;;;;;;12.47;10.70;;;;;;;23.39;100.00;98544.31;4159864;28;20663;-84
2023/08/20 01:39:20;;;;;;;13.07;10.00;;;;;;;23.38;100.00;98545.34;4161398;28;20751;-83
2023/08/20 01:41:23;;;;;;;10.83;9.73;;;;;;;23.38;100.00;98544.53;4166795;28;20648;-83
2023/08/20 01:43:26;;;;;;;12.97;10.23;;;;;;;23.36;100.00;98550.03;4167971;28;22079;-84
2023/08/20 01:45:30;;;;;;;13.47;10.90;;;;;;;23.35;100.00;98547.53;4153746;28;20638;-84
2023/08/20 01:47:34;;;;;;;11.10;9.90;;;;;;;23.32;100.00;98551.38;4164903;28;20645;-84
2023/08/20 01:49:38;;;;;;;10.90;9.70;;;;;;;23.28;100.00;98543.91;4156735;28;20644;-83
2023/08/20 01:51:41;;;;;;;11.40;9.60;;;;;;;23.24;100.00;98546.09;4171842;28;20635;-85
2023/08/20 01:53:44;;;;;;;10.20;9.20;;;;;;;23.24;100.00;98547.88;4166062;28;20663;-84
2023/08/20 01:55:47;;;;;;;12.13;10.53;;;;;;;23.23;100.00;98552.41;4162149;28;20638;-83
2023/08/20 01:57:50;;;;;;;11.47;10.27;;;;;;;23.22;100.00;98556.06;4160110;28;20772;-84
2023/08/20 01:59:53;;;;;;;11.03;9.93;;;;;;;23.23;100.00;98555.06;4166449;28;20643;-83
2023/08/20 02:01:58;;;;;;;11.70;9.70;;;;;;;23.21;100.00;98550.91;4145114;28;20747;-84
2023/08/20 02:04:02;;;;;;;11.10;9.97;;;;;;;23.20;100.00;98554.59;4148543;28;20717;-84
2023/08/20 02:06:05;;;;;;;12.60;10.30;;;;;;;23.19;100.00;98550.25;4155459;28;20721;-83
2023/08/20 02:08:08;;;;;;;11.87;10.30;;;;;;;23.18;100.00;98551.25;4162365;28;21900;-83
2023/08/20 02:10:12;;;;;;;11.80;9.53;;;;;;;23.17;100.00;98554.06;4174672;28;20645;-82
2023/08/20 02:12:16;;;;;;;11.53;10.33;;;;;;;23.16;100.00;98555.09;4173981;28;21282;-84
2023/08/20 02:14:18;;;;;;;11.97;9.93;;;;;;;23.16;100.00;98555.09;4168599;28;20632;-82
2023/08/20 02:16:21;;;;;;;10.97;9.87;;;;;;;23.14;100.00;98560.59;4169026;28;20646;-84
2023/08/20 02:18:26;;;;;;;10.73;9.73;;;;;;;23.15;100.00;98556.09;4171577;28;20622;-81
2023/08/20 02:20:29;;;;;;;12.10;9.17;;;;;;;23.14;100.00;98560.59;4176073;28;20632;-84
2023/08/20 02:22:34;;;;;;;10.70;9.60;;;;;;;23.11;100.00;98566.25;4158790;28;20653;-83
2023/08/20 02:24:37;;;;;;;12.70;10.17;;;;;;;23.08;100.00;98558.59;4157001;28;21043;-83
2023/08/20 02:26:41;;;;;;;11.60;10.17;;;;;;;23.06;100.00;98557.94;4172427;28;21040;-82
2023/08/20 02:28:44;;;;;;;10.10;8.97;;;;;;;23.02;100.00;98555.78;4166038;28;20698;-84
2023/08/20 02:30:47;;;;;;;11.10;9.00;;;;;;;22.98;100.00;98560.63;4169121;28;20794;-83
2023/08/20 02:32:51;;;;;;;10.90;9.30;;;;;;;22.95;100.00;98565.47;4184287;28;20631;-82
2023/08/20 02:34:56;;;;;;;10.73;9.73;;;;;;;22.91;100.00;98564.09;4173812;28;21274;-82
2023/08/20 02:37:01;;;;;;;10.30;9.20;;;;;;;22.89;100.00;98560.78;4154228;28;20714;-84
2023/08/20 02:39:07;;;;;;;10.13;9.13;;;;;;;22.85;100.00;98560.31;4167615;28;20635;-76
2023/08/20 02:41:12;;;;;;;10.70;9.60;;;;;;;22.80;100.00;98562.63;4167494;28;20633;-77
2023/08/20 02:43:15;;;;;;;11.07;9.60;;;;;;;22.77;100.00;98567.44;4172038;28;20659;-76
2023/08/20 02:45:18;;;;;;;11.30;10.10;;;;;;;22.75;100.00;98566.78;4149340;28;20679;-76
2023/08/20 02:47:20;;;;;;;11.73;10.53;;;;;;;22.74;100.00;98562.47;4170637;28;20674;-76
2023/08/20 02:49:23;;;;;;;12.00;10.70;;;;;;;22.73;100.00;98563.47;4158624;28;20735;-76
2023/08/20 02:51:28;;;;;;;11.40;10.30;;;;;;;22.72;100.00;98556.50;4151805;28;20620;-76
2023/08/20 02:53:31;;;;;;;11.10;9.80;;;;;;;22.71;100.00;98552.97;4159199;28;20624;-77
2023/08/20 02:55:35;;;;;;;12.20;10.30;;;;;;;22.72;100.00;98548.50;4152871;28;20639;-76
2023/08/20 02:57:38;;;;;;;13.10;10.60;;;;;;;22.71;100.00;98541.53;4168904;28;20622;-76
2023/08/20 02:59:41;;;;;;;13.40;10.17;;;;;;;22.68;100.00;98544.50;4161397;28;21015;-76
2023/08/20 03:01:44;;;;;;;9.93;8.93;;;;;;;22.64;100.00;98540.53;4169863;28;21276;-78
2023/08/20 03:03:48;;;;;;;11.27;9.90;;;;;;;22.65;100.00;98531.56;4172875;28;20667;-76
2023/08/20 03:05:51;;;;;;;12.07;10.63;;;;;;;22.65;100.00;98528.88;4158306;28;20648;-76
2023/08/20 03:07:56;;;;;;;10.00;9.00;;;;;;;22.64;100.00;98535.19;4173718;28;21049;-78
2023/08/20 03:09:59;;;;;;;11.60;10.40;;;;;;;22.63;100.00;98538.88;4170155;28;21197;-77
2023/08/20 03:12:02;;;;;;;11.43;10.23;;;;;;;22.65;100.00;98530.72;4168889;28;20647;-77
2023/08/20 03:14:06;;;;;;;13.37;10.97;;;;;;;22.68;100.00;98527.72;4156337;28;21007;-78
2023/08/20 03:16:09;;;;;;;12.40;11.07;;;;;;;22.69;100.00;98532.88;4168377;28;20643;-77
2023/08/20 03:18:12;;;;;;;13.90;11.10;;;;;;;22.71;100.00;98531.69;4170683;28;20692;-78
2023/08/20 03:20:15;;;;;;;11.70;10.60;;;;;;;22.72;100.00;98528.03;4169834;28;21206;-76
2023/08/20 03:22:19;;;;;;;12.00;10.60;;;;;;;22.71;100.00;98532.72;4172851;28;21280;-77
2023/08/20 03:24:23;;;;;;;15.13;12.07;;;;;;;22.68;100.00;98531.22;4171261;28;20642;-76
2023/08/20 03:26:26;;;;;;;11.73;10.17;;;;;;;22.71;100.00;98530.88;4154278;28;20726;-76
2023/08/20 03:28:29;;;;;;;12.27;10.00;;;;;;;22.69;100.00;98532.03;4159116;28;21223;-76
2023/08/20 03:30:34;;;;;;;12.47;11.27;;;;;;;22.66;100.00;98532.38;4170239;28;20635;-76
2023/08/20 03:32:37;;;;;;;10.80;9.63;;;;;;;22.60;100.00;98528.56;4154394;28;20630;-76
2023/08/20 03:34:41;;;;;;;11.80;10.60;;;;;;;22.57;100.00;98528.09;4159078;28;20666;-77
2023/08/20 03:36:44;;;;;;;10.60;9.70;;;;;;;22.55;100.00;98530.91;4171033;28;20656;-76
2023/08/20 03:38:47;;;;;;;15.23;9.97;;;;;;;22.54;100.00;98539.06;4170028;28;20638;-77
2023/08/20 03:40:52;;;;;;;10.97;9.87;;;;;;;22.53;100.00;98538.22;4167416;28;20638;-76
2023/08/20 03:42:55;;;;;;;11.17;9.83;;;;;;;22.51;100.00;98542.88;4166848;28;20678;-77
2023/08/20 03:44:58;;;;;;;11.60;10.40;;;;;;;22.49;100.00;98547.53;4170451;28;20621;-78
2023/08/20 03:47:02;;;;;;;11.43;10.33;;;;;;;22.47;100.00;98549.53;4167817;28;21253;-76
2023/08/20 03:49:05;;;;;;;11.77;10.57;;;;;;;22.46;100.00;98558.50;4171872;28;20647;-76
2023/08/20 03:51:08;;;;;;;12.17;9.90;;;;;;;22.44;100.00;98559.66;4150185;28;20622;-80
2023/08/20 03:53:11;;;;;;;11.70;10.50;;;;;;;22.42;100.00;98562.50;4169151;28;20639;-84
2023/08/20 03:55:14;;;;;;;12.30;11.10;;;;;;;22.40;100.00;98563.66;4159494;28;21030;-84
2023/08/20 03:57:19;;;;;;;12.67;10.37;;;;;;;22.39;100.00;98557.50;4165577;28;21292;-84
2023/08/20 03:59:22;;;;;;;12.50;9.80;;;;;;;22.38;100.00;98565.66;4164869;28;20655;-82
2023/08/20 04:01:25;;;;;;;11.40;10.10;;;;;;;22.34;100.00;98565.16;4152341;28;21022;-83
2023/08/20 04:03:29;;;;;;;11.60;9.93;;;;;;;22.31;100.00;98565.50;4155469;28;20707;-82
2023/08/20 04:05:37;;;;;;;10.93;9.83;;;;;;;22.28;100.00;98554.34;4169715;28;20723;-82
2023/08/20 04:07:40;;;;;;;15.30;10.50;;;;;;;22.25;100.00;98560.84;4168642;28;21010;-82
2023/08/20 04:09:43;;;;;;;12.07;10.47;;;;;;;22.22;100.00;98551.50;4166799;28;20733;-84
2023/08/20 04:11:48;;;;;;;12.40;10.03;;;;;;;22.20;100.00;98551.66;4175181;28;20649;-84
2023/08/20 04:13:52;;;;;;;11.33;10.17;;;;;;;22.19;100.00;98549.16;4157086;28;20649;-84
2023/08/20 04:15:56;;;;;;;13.50;10.17;;;;;;;22.18;100.00;98553.66;4173466;28;20645;-81
2023/08/20 04:17:59;;;;;;;12.33;10.93;;;;;;;22.18;100.00;98558.97;4172580;28;20636;-85
2023/08/20 04:20:07;;;;;;;11.47;10.13;;;;;;;22.18;100.00;98558.97;4160212;28;20681;-84
2023/08/20 04:22:10;;;;;;;11.77;10.17;;;;;;;22.19;100.00;98554.47;4170636;28;20622;-83
2023/08/20 04:24:17;;;;;;;13.40;9.97;;;;;;;22.22;100.00;98556.84;4175291;28;20692;-84
2023/08/20 04:26:20;;;;;;;10.87;9.77;;;;;;;22.22;100.00;98562.16;4158185;28;20631;-82
2023/08/20 04:28:23;;;;;;;11.23;10.17;;;;;;;22.21;100.00;98568.47;4171881;28;20664;-81
2023/08/20 04:30:27;;;;;;;11.67;10.60;;;;;;;22.20;100.00;98567.59;4171147;28;21216;-81
2023/08/20 04:32:30;;;;;;;11.23;10.13;;;;;;;22.22;100.00;98580.75;4165317;28;21189;-82
2023/08/20 04:34:34;;;;;;;11.53;10.33;;;;;;;22.24;100.00;98575.13;4169548;28;21022;-81
2023/08/20 04:36:37;;;;;;;11.50;10.00;;;;;;;22.25;100.00;98574.13;4170900;28;21211;-81
2023/08/20 04:38:40;;;;;;;12.10;10.73;;;;;;;22.25;100.00;98567.97;4171718;28;20695;-82
2023/08/20 04:40:43;;;;;;;12.20;10.27;;;;;;;22.25;100.00;98568.81;4166659;28;21068;-82
2023/08/20 04:42:46;;;;;;;12.37;10.80;;;;;;;22.26;100.00;98573.09;4164939;28;20743;-82
2023/08/20 04:44:50;;;;;;;11.50;10.23;;;;;;;22.25;100.00;98568.81;4153578;28;20655;-81
2023/08/20 04:46:56;;;;;;;12.30;10.20;;;;;;;22.23;100.00;98567.31;4157391;28;20641;-82
2023/08/20 04:49:01;;;;;;;14.40;10.73;;;;;;;22.22;100.00;98564.81;4152894;28;20672;-81
2023/08/20 04:51:04;;;;;;;11.83;10.63;;;;;;;22.19;100.00;98559.78;4165335;28;20650;-81
2023/08/20 04:53:07;;;;;;;13.80;10.63;;;;;;;22.18;100.00;98560.81;4163388;28;20641;-81
2023/08/20 04:55:11;;;;;;;13.73;11.47;;;;;;;22.20;100.00;98558.81;4167686;28;20631;-84
2023/08/20 04:57:13;;;;;;;13.40;11.17;;;;;;;22.22;100.00;98562.16;4154298;28;21272;-84
2023/08/20 04:59:17;;;;;;;11.63;10.40;;;;;;;22.23;100.00;98566.47;4162481;28;20654;-80
2023/08/20 05:01:41;;;;;;;12.50;10.10;;;;;;;22.24;100.00;98568.97;4169910;28;20635;-83
2023/08/20 05:03:46;;;;;;;10.70;9.60;;;;;;;22.25;100.00;98566.16;4155472;28;20681;-84
2023/08/20 05:05:50;;;;;;;12.07;10.73;;;;;;;22.27;100.00;98563.31;4169936;28;21181;-82
2023/08/20 05:07:52;;;;;;;12.00;10.80;;;;;;;22.31;100.00;98578.78;4163234;28;20697;-83
2023/08/20 05:09:56;;;;;;;12.27;10.60;;;;;;;22.34;100.00;98570.47;4149855;28;20630;-81
2023/08/20 05:11:59;;;;;;;13.60;10.73;;;;;;;22.40;100.00;98568.97;4167471;28;20685;-82
2023/08/20 05:14:03;;;;;;;13.10;11.53;;;;;;;22.43;100.00;98590.75;4182052;28;20636;-83
2023/08/20 05:16:06;;;;;;;13.00;11.50;;;;;;;22.46;100.00;98585.09;4164947;28;20675;-82
2023/08/20 05:18:10;;;;;;;15.10;11.73;;;;;;;22.51;100.00;98587.28;4156410;28;20727;-83
2023/08/20 05:20:15;;;;;;;12.93;11.57;;;;;;;22.55;100.00;98593.91;4164364;28;20644;-83
2023/08/20 05:22:19;;;;;;;12.30;11.00;;;;;;;22.61;100.00;98595.91;4160931;28;20631;-83
2023/08/20 05:24:22;;;;;;;14.37;10.23;;;;;;;22.71;100.00;98602.72;4165653;28;20663;-83
2023/08/20 05:26:25;;;;;;;15.63;11.70;;;;;;;22.81;100.00;98604.19;4170338;28;20630;-82
2023/08/20 05:28:29;;;;;;;14.23;11.77;;;;;;;22.96;100.00;98604.41;4158050;28;20755;-80
2023/08/20 05:30:32;;;;;;;12.60;10.60;;;;;;;23.07;100.00;98607.50;4155117;28;20663;-83
2023/08/20 05:32:35;;;;;;;12.00;10.80;;;;;;;23.22;100.00;98611.16;4170732;28;20635;-80
2023/08/20 05:34:39;;;;;;;10.73;9.63;;;;;;;23.33;100.00;98605.44;4150377;28;20674;-79
2023/08/20 05:36:44;;;;;;;11.03;9.93;;;;;;;23.48;100.00;98614.38;4155082;28;20645;-81
2023/08/20 05:38:47;;;;;;;12.57;11.23;;;;;;;23.61;100.00;98615.50;4147251;28;21222;-80
2023/08/20 05:40:50;;;;;;;11.63;10.43;;;;;;;23.74;100.00;98621.97;4157806;28;21256;-82
2023/08/20 05:42:53;;;;;;;11.80;10.53;;;;;;;23.87;99.62;98618.75;4165985;28;20997;-82
2023/08/20 05:44:57;;;;;;;11.30;10.20;;;;;;;24.02;99.90;98612.50;4163378;28;21248;-83
2023/08/20 05:47:05;;;;;;;11.43;10.07;;;;;;;24.21;99.38;98623.56;4150071;28;20643;-83
2023/08/20 05:49:08;;;;;;;11.40;10.30;;;;;;;24.41;98.91;98623.97;4153580;28;21153;-82
2023/08/20 05:51:12;;;;;;;11.10;10.00;;;;;;;24.58;97.23;98618.31;4173048;28;20635;-82
2023/08/20 05:53:16;;;;;;;11.70;10.53;;;;;;;24.72;95.67;98614.88;4181007;28;20662;-83
2023/08/20 05:55:25;;;;;;;11.43;10.10;;;;;;;24.87;95.39;98605.06;4161472;28;20625;-82
2023/08/20 05:57:30;;;;;;;11.43;10.10;;;;;;;24.98;94.61;98607.28;4166455;28;21252;-82
2023/08/20 05:59:34;;;;;;;11.67;10.57;;;;;;;25.11;94.37;98595.00;4152654;28;21085;-81
2023/08/20 06:01:38;;;;;;;12.53;10.70;;;;;;;25.23;93.87;98597.03;4146974;28;21411;-81
2023/08/20 06:03:41;;;;;;;12.03;10.70;;;;;;;25.36;93.21;98602.56;4163406;28;20737;-83
2023/08/20 06:05:44;;;;;;;11.77;10.53;;;;;;;25.50;93.30;98604.41;4162576;28;20777;-82
2023/08/20 06:07:47;;;;;;;11.67;10.53;;;;;;;25.66;93.67;98604.25;4163686;28;20625;-82
2023/08/20 06:09:52;;;;;;;12.23;10.27;;;;;;;25.81;93.11;98605.88;4165293;28;21222;-74
2023/08/20 06:11:55;;;;;;;11.90;10.67;;;;;;;26.00;93.36;98612.50;4167105;28;20985;-74
2023/08/20 06:13:58;;;;;;;12.10;10.90;;;;;;;26.16;93.44;98610.41;4152302;28;20650;-76
2023/08/20 06:16:02;;;;;;;11.67;10.50;;;;;;;26.34;92.25;98621.53;4172845;28;20645;-75
2023/08/20 06:18:05;;;;;;;12.33;11.03;;;;;;;26.49;92.58;98630.34;4163868;28;21211;-75
2023/08/20 06:20:11;;;;;;;14.53;12.30;;;;;;;26.63;91.90;98615.06;4167165;28;20660;-75
2023/08/20 06:22:14;;;;;;;12.50;11.20;;;;;;;26.77;90.47;98632.09;4170577;28;21081;-74
2023/08/20 06:24:17;;;;;;;11.47;10.27;;;;;;;26.88;89.67;98635.09;4163486;28;20624;-74
2023/08/20 06:26:22;;;;;;;12.37;11.07;;;;;;;27.03;90.02;98635.00;4160134;28;20644;-75
2023/08/20 06:28:25;;;;;;;11.33;10.10;;;;;;;27.23;90.22;98640.34;4161439;28;20631;-76
2023/08/20 06:30:28;;;;;;;11.70;10.50;;;;;;;27.36;90.15;98648.44;4145488;28;20630;-75
2023/08/20 06:32:32;;;;;;;15.80;11.90;;;;;;;27.52;88.90;98655.44;4150721;28;20631;-74
2023/08/20 06:34:36;;;;;;;12.10;10.90;;;;;;;27.65;89.30;98662.53;4176786;28;20968;-75
2023/08/20 06:36:39;;;;;;;11.73;10.50;;;;;;;27.77;87.42;98663.63;4153651;28;20651;-74
2023/08/20 06:38:41;;;;;;;12.03;10.87;;;;;;;27.87;87.46;98664.06;4169597;28;21180;-74
2023/08/20 06:40:44;;;;;;;12.43;11.23;;;;;;;27.93;85.90;98663.28;4164696;28;20675;-75
2023/08/20 06:42:49;;;;;;;12.40;11.10;;;;;;;28.00;87.01;98667.66;4144888;28;20750;-76
2023/08/20 06:44:52;;;;;;;12.50;11.23;;;;;;;28.03;85.36;98655.69;4153040;28;20838;-76
2023/08/20 06:46:55;;;;;;;11.80;10.60;;;;;;;28.03;85.66;98663.75;4166279;28;20744;-76
2023/08/20 06:48:58;;;;;;;10.83;9.73;;;;;;;28.00;84.48;98656.91;4156003;28;21196;-77
2023/08/20 06:51:09;;;;;;;12.60;11.27;;;;;;;28.14;85.38;98665.88;4161016;28;20637;-76
2023/08/20 06:53:12;;;;;;;11.33;10.33;;;;;;;28.24;84.58;98656.44;4157563;28;20732;-76
2023/08/20 06:55:15;;;;;;;11.07;9.83;;;;;;;28.34;84.78;98654.22;4159580;28;20650;-74
2023/08/20 06:57:18;;;;;;;12.20;10.57;;;;;;;28.54;86.19;98653.22;4161600;28;20617;-75
2023/08/20 06:59:23;;;;;;;11.90;10.23;;;;;;;28.72;84.42;98655.38;4148796;28;20635;-76
2023/08/20 07:01:26;;;;;;;12.03;10.13;;;;;;;28.98;84.98;98658.06;4177831;28;20671;-75
2023/08/20 07:03:30;;;;;;;11.17;10.07;;;;;;;29.18;85.07;98657.03;4160391;28;20651;-75
2023/08/20 07:05:33;;;;;;;12.50;10.93;;;;;;;29.33;85.19;98660.38;4165219;28;20656;-75
2023/08/20 07:07:36;;;;;;;11.50;10.30;;;;;;;29.19;83.37;98654.13;4159029;28;21221;-76
2023/08/20 07:09:40;;;;;;;12.93;10.60;;;;;;;29.05;84.57;98646.28;4163119;28;20628;-75
2023/08/20 07:11:43;;;;;;;14.00;11.30;;;;;;;28.89;85.42;98651.25;4164989;28;20644;-74
2023/08/20 07:13:49;;;;;;;13.70;12.30;;;;;;;28.68;85.16;98656.78;4168095;28;21221;-75
2023/08/20 07:15:53;;;;;;;16.40;14.13;;;;;;;28.83;85.17;98649.38;4165699;28;20625;-76
2023/08/20 07:17:56;;;;;;;13.40;12.10;;;;;;;29.03;83.75;98653.72;4167790;28;20677;-76
2023/08/20 07:19:59;;;;;;;17.93;15.27;;;;;;;29.17;84.41;98648.16;4171988;28;21218;-77
2023/08/20 07:22:02;;;;;;;16.87;15.10;;;;;;;29.30;84.58;98652.72;4169757;28;21161;-76
2023/08/20 07:24:05;;;;;;;14.43;11.63;;;;;;;29.53;84.40;98656.63;4170817;28;20645;-76
2023/08/20 07:26:10;;;;;;;15.00;13.47;;;;;;;29.73;82.86;98665.50;4162411;28;20664;-76
2023/08/20 07:28:13;;;;;;;14.13;12.17;;;;;;;29.89;82.26;98659.66;4170572;28;20623;-76
2023/08/20 07:30:15;;;;;;;15.57;12.17;;;;;;;29.99;81.41;98672.50;4171277;28;21440;-75
2023/08/20 07:32:20;;;;;;;13.27;11.90;;;;;;;30.14;82.10;98672.22;4162492;28;20635;-75
2023/08/20 07:34:22;;;;;;;14.00;12.50;;;;;;;30.02;80.46;98668.53;4168902;28;20658;-76
2023/08/20 07:36:27;;;;;;;14.10;10.60;;;;;;;30.04;82.33;98672.69;4171861;28;20646;-76
2023/08/20 07:38:30;;;;;;;13.87;11.20;;;;;;;30.23;83.54;98673.63;4173834;28;20644;-76
2023/08/20 07:40:33;;;;;;;14.57;11.30;;;;;;;30.41;83.28;98663.84;4171809;28;20713;-77
2023/08/20 07:42:37;;;;;;;13.93;12.43;;;;;;;30.54;81.23;98669.16;4166161;28;20683;-77
2023/08/20 07:44:40;;;;;;;12.37;11.10;;;;;;;30.67;81.67;98674.47;4165805;28;21235;-76
2023/08/20 07:46:43;;;;;;;14.80;13.30;;;;;;;30.85;83.39;98678.06;4166851;28;20688;-76
2023/08/20 07:48:48;;;;;;;14.13;12.63;;;;;;;30.93;80.50;98677.88;4168965;28;20711;-75
2023/08/20 07:50:51;;;;;;;14.07;12.67;;;;;;;31.03;81.65;98672.81;4165048;28;21038;-76
2023/08/20 07:52:54;;;;;;;13.80;12.37;;;;;;;31.18;79.71;98668.72;4167498;28;20629;-76
2023/08/20 07:54:57;;;;;;;15.53;13.20;;;;;;;31.26;80.82;98671.19;4167555;28;20630;-78
2023/08/20 07:57:00;;;;;;;14.00;12.63;;;;;;;31.32;77.93;98675.69;4163252;28;20644;-77
2023/08/20 07:59:04;;;;;;;15.60;13.23;;;;;;;31.38;76.93;98677.50;4167642;28;20673;-76
2023/08/20 08:01:07;;;;;;;13.47;12.17;;;;;;;31.41;78.89;98674.41;4164393;28;20629;-76
2023/08/20 08:03:10;;;;;;;13.10;11.73;;;;;;;31.41;78.81;98679.81;4157803;28;21226;-77
2023/08/20 08:05:15;;;;;;;13.20;11.90;;;;;;;31.46;79.27;98675.38;4155092;28;21381;-75
2023/08/20 08:07:18;;;;;;;12.70;11.20;;;;;;;31.48;77.52;98673.31;4160590;28;20657;-82
2023/08/20 08:09:23;;;;;;;12.53;11.27;;;;;;;31.58;79.12;98675.47;4156143;28;20640;-78
2023/08/20 08:11:25;;;;;;;13.20;11.43;;;;;;;31.71;79.31;98681.59;4163904;28;21079;-75
2023/08/20 08:13:28;;;;;;;12.37;11.00;;;;;;;31.83;78.44;98679.81;4159469;28;20720;-77
2023/08/20 08:15:32;;;;;;;12.93;11.63;;;;;;;32.04;79.15;98676.66;4164981;28;20665;-78
2023/08/20 08:17:36;;;;;;;13.50;12.17;;;;;;;32.17;77.95;98695.44;4158613;28;20659;-78
2023/08/20 08:19:39;;;;;;;11.40;10.40;;;;;;;32.09;76.69;98691.16;4152566;28;20669;-81
2023/08/20 08:21:43;;;;;;;11.63;10.53;;;;;;;32.08;76.34;98678.69;4168765;28;21094;-83
2023/08/20 08:23:47;;;;;;;13.83;12.23;;;;;;;31.97;76.21;98682.16;4156764;28;20723;-78
2023/08/20 08:25:50;;;;;;;13.37;12.07;;;;;;;32.00;77.02;98681.69;4168071;28;20686;-81
2023/08/20 08:27:53;;;;;;;12.63;11.40;;;;;;;32.22;76.75;98685.63;4162110;28;20637;-82
2023/08/20 08:30:03;;;;;;;15.00;11.70;;;;;;;32.42;75.90;98684.31;4171332;28;20628;-83
2023/08/20 08:32:09;;;;;;;15.27;11.20;;;;;;;32.48;77.02;98693.41;4149901;28;20725;-84
2023/08/20 08:34:12;;;;;;;12.77;11.57;;;;;;;32.51;75.06;98690.25;4166263;28;21084;-81
2023/08/20 08:36:16;;;;;;;12.27;11.00;;;;;;;32.30;76.01;98679.91;4159010;28;21680;-82
2023/08/20 08:38:21;;;;;;;12.30;11.10;;;;;;;32.31;78.49;98683.41;4161010;28;21325;-80
2023/08/20 08:40:24;;;;;;;13.67;12.17;;;;;;;32.42;77.09;98676.19;4162012;28;21218;-83
2023/08/20 08:42:27;;;;;;;14.90;11.40;;;;;;;32.43;74.97;98674.34;4161928;28;20644;-82
2023/08/20 08:44:32;;;;;;;12.87;10.50;;;;;;;32.27;74.25;98671.44;4158955;28;20633;-81
2023/08/20 08:46:36;;;;;;;12.03;10.73;;;;;;;32.28;75.96;98670.34;4160765;28;20715;-81
2023/08/20 08:48:41;;;;;;;12.10;10.83;;;;;;;32.26;75.04;98672.47;4175169;28;20739;-81
2023/08/20 08:50:44;;;;;;;10.93;9.93;;;;;;;32.12;75.80;98668.28;4166162;28;21316;-79
2023/08/20 08:52:48;;;;;;;13.03;11.67;;;;;;;31.96;75.84;98663.47;4183516;28;20732;-84
2023/08/20 08:54:53;;;;;;;13.20;11.43;;;;;;;31.85;75.57;98668.78;4164305;28;20660;-80
2023/08/20 08:56:57;;;;;;;12.13;10.93;;;;;;;32.04;76.71;98669.41;4164365;28;20741;-83
2023/08/20 08:59:00;;;;;;;12.20;10.90;;;;;;;32.25;77.12;98676.22;4169788;28;20684;-87
2023/08/20 09:01:04;;;;;;;13.87;11.17;;;;;;;32.46;76.83;98674.72;4154621;28;20725;-88
2023/08/20 09:03:07;;;;;;;12.23;11.03;;;;;;;32.65;77.04;98670.09;4163986;28;20668;-81
2023/08/20 09:05:11;;;;;;;12.50;11.30;;;;;;;32.78;77.50;98672.59;4172039;28;20663;-89
2023/08/20 09:07:15;;;;;;;11.57;10.37;;;;;;;32.85;76.56;98672.28;4158940;28;20692;-84
2023/08/20 09:09:19;;;;;;;12.07;10.97;;;;;;;32.88;76.62;98677.25;4168413;28;24182;-91
2023/08/20 09:11:35;;;;;;;12.83;11.63;;;;;;;32.86;75.87;98673.91;4170724;28;20621;-86
2023/08/20 09:13:39;;;;;;;14.07;12.67;;;;;;;32.72;74.67;98665.44;4170471;28;21162;-90
2023/08/20 09:15:42;;;;;;;12.47;11.17;;;;;;;32.79;76.20;98675.06;4158808;28;21076;-88
2023/08/20 09:17:47;;;;;;;12.70;11.40;;;;;;;32.86;75.00;98665.00;4170393;28;20636;-85
2023/08/20 09:19:50;;;;;;;11.60;10.50;;;;;;;32.92;74.67;98667.59;4166164;28;20638;-88
2023/08/20 09:21:55;;;;;;;12.73;11.43;;;;;;;32.94;72.33;98664.69;4165326;28;20621;-83
2023/08/20 09:23:59;;;;;;;11.87;10.67;;;;;;;32.89;73.48;98664.53;4155234;28;20683;-86
2023/08/20 09:26:02;;;;;;;13.00;10.97;;;;;;;32.83;73.12;98662.75;4150315;28;20670;-84
2023/08/20 09:28:07;;;;;;;14.70;11.13;;;;;;;32.73;72.92;98661.66;4165977;28;20664;-83